createdAt,value
2023-01-27T00:00:37.586Z,7.47
2023-01-27T00:03:05.001Z,8.13
2023-01-27T00:05:32.426Z,7.53
2023-01-27T00:07:59.893Z,7.50
2023-01-27T00:10:27.467Z,7.73
2023-01-27T00:13:13.649Z,7.73
2023-01-27T00:15:41.146Z,7.23
2023-01-27T00:18:08.974Z,7.37
2023-01-27T00:20:54.853Z,7.90
2023-01-27T00:23:42.226Z,7.53
2023-01-27T00:26:13.101Z,7.57
2023-01-27T00:28:43.590Z,6.63
2023-01-27T00:31:32.729Z,7.10
2023-01-27T00:34:09.247Z,7.20
2023-01-27T00:36:38.264Z,6.90
2023-01-27T00:39:06.510Z,6.80
2023-01-27T00:41:34.486Z,6.87
2023-01-27T00:44:02.425Z,6.50
2023-01-27T00:46:30.084Z,7.10
2023-01-27T00:48:57.848Z,6.10
2023-01-27T00:51:25.321Z,7.07
2023-01-27T00:53:52.813Z,6.60
2023-01-27T00:56:20.262Z,6.70
2023-01-27T00:58:47.671Z,6.27
2023-01-27T01:01:16.340Z,6.47
2023-01-27T01:03:44.088Z,6.13
2023-01-27T01:06:13.219Z,6.50
2023-01-27T01:08:40.698Z,6.53
2023-01-27T01:11:09.026Z,6.40
2023-01-27T01:13:36.532Z,5.80
2023-01-27T01:16:07.817Z,6.30
2023-01-27T01:18:35.570Z,6.57
2023-01-27T01:21:03.603Z,6.73
2023-01-27T01:23:31.040Z,6.40
2023-01-27T01:25:58.557Z,5.87
2023-01-27T01:28:26.414Z,6.37
2023-01-27T01:30:54.136Z,6.07
2023-01-27T01:33:21.587Z,5.73
2023-01-27T01:35:48.975Z,5.77
2023-01-27T01:38:16.369Z,6.10
2023-01-27T01:40:44.795Z,6.93
2023-01-27T01:43:16.232Z,6.40
2023-01-27T01:45:46.102Z,5.90
2023-01-27T01:48:19.161Z,7.10
2023-01-27T01:50:49.047Z,6.47
2023-01-27T01:53:16.657Z,6.47
2023-01-27T01:55:44.080Z,6.07
2023-01-27T01:58:12.805Z,6.40
2023-01-27T02:00:40.560Z,6.13
2023-01-27T02:03:08.263Z,6.13
2023-01-27T02:05:37.154Z,6.03
2023-01-27T02:08:15.273Z,5.77
2023-01-27T02:10:44.964Z,5.57
2023-01-27T02:13:12.485Z,6.87
2023-01-27T02:15:40.383Z,5.70
2023-01-27T02:18:08.318Z,6.17
2023-01-27T02:20:43.065Z,5.97
2023-01-27T02:23:29.192Z,5.73
2023-01-27T02:26:06.183Z,5.90
2023-01-27T02:28:34.402Z,5.93
2023-01-27T02:31:02.077Z,6.13
2023-01-27T02:33:29.564Z,5.90
2023-01-27T02:36:00.233Z,6.13
2023-01-27T02:38:39.412Z,6.10
2023-01-27T02:41:10.295Z,6.13
2023-01-27T02:43:37.972Z,6.20
2023-01-27T02:46:05.463Z,6.40
2023-01-27T02:48:32.951Z,5.90
2023-01-27T02:51:00.638Z,6.10
2023-01-27T02:53:30.449Z,6.53
2023-01-27T02:55:57.971Z,5.97
2023-01-27T02:58:25.484Z,5.60
2023-01-27T03:00:58.154Z,6.00
2023-01-27T03:03:25.694Z,5.70
2023-01-27T03:05:53.546Z,5.93
2023-01-27T03:08:21.027Z,5.57
2023-01-27T03:10:52.359Z,6.10
2023-01-27T03:13:25.973Z,5.60
2023-01-27T03:16:14.308Z,5.30
2023-01-27T03:18:47.439Z,6.07
2023-01-27T03:21:15.214Z,6.63
2023-01-27T03:23:42.704Z,5.77
2023-01-27T03:26:11.019Z,6.67
2023-01-27T03:28:41.876Z,6.50
2023-01-27T03:31:20.118Z,5.73
2023-01-27T03:33:53.760Z,5.47
2023-01-27T03:36:59.879Z,5.87
2023-01-27T03:39:46.287Z,5.97
2023-01-27T03:42:32.566Z,5.70
2023-01-27T03:45:18.815Z,5.67
2023-01-27T03:47:46.207Z,6.00
2023-01-27T03:50:19.306Z,6.30
2023-01-27T03:53:03.332Z,6.00
2023-01-27T03:55:31.698Z,6.47
2023-01-27T03:58:18.155Z,5.87
2023-01-27T04:00:50.851Z,6.53
2023-01-27T04:03:37.344Z,6.10
2023-01-27T04:06:27.872Z,5.80
2023-01-27T04:08:55.771Z,5.77
2023-01-27T04:11:42.100Z,6.13
2023-01-27T04:14:10.244Z,5.87
2023-01-27T04:16:37.984Z,6.43
2023-01-27T04:19:06.367Z,6.50
2023-01-27T04:21:34.042Z,5.73
2023-01-27T04:24:02.022Z,5.93
2023-01-27T04:26:34.601Z,5.67
2023-01-27T04:29:03.511Z,5.67
2023-01-27T04:31:32.742Z,6.47
2023-01-27T04:34:00.524Z,6.33
2023-01-27T04:36:27.960Z,5.73
2023-01-27T04:38:55.455Z,6.47
2023-01-27T04:41:22.865Z,5.47
2023-01-27T04:43:50.405Z,6.07
2023-01-27T04:46:17.858Z,6.30
2023-01-27T04:48:45.391Z,5.67
2023-01-27T04:51:12.766Z,6.40
2023-01-27T04:53:40.182Z,6.20
2023-01-27T04:56:13.072Z,6.13
2023-01-27T04:58:40.474Z,5.37
2023-01-27T05:01:07.927Z,6.10
2023-01-27T05:03:35.357Z,6.30
2023-01-27T05:06:02.939Z,6.23
2023-01-27T05:08:30.369Z,5.37
2023-01-27T05:10:57.817Z,5.97
2023-01-27T05:13:25.244Z,6.33
2023-01-27T05:15:52.662Z,6.63
2023-01-27T05:18:20.081Z,6.60
2023-01-27T05:20:47.586Z,6.70
2023-01-27T05:23:33.802Z,6.33
2023-01-27T05:26:02.830Z,6.33
2023-01-27T05:28:30.327Z,6.10
2023-01-27T05:31:12.283Z,5.93
2023-01-27T05:33:40.195Z,5.73
2023-01-27T05:36:08.360Z,6.10
2023-01-27T05:38:36.102Z,6.20
2023-01-27T05:41:05.043Z,6.40
2023-01-27T05:43:34.253Z,6.47
2023-01-27T05:46:02.512Z,6.27
2023-01-27T05:48:30.002Z,6.27
2023-01-27T05:50:58.424Z,6.27
2023-01-27T05:53:25.965Z,6.23
2023-01-27T05:55:53.455Z,5.87
2023-01-27T05:58:21.309Z,6.73
2023-01-27T06:00:48.937Z,6.93
2023-01-27T06:03:16.634Z,6.30
2023-01-27T06:05:53.533Z,6.27
2023-01-27T06:08:21.319Z,6.77
2023-01-27T06:10:48.923Z,6.53
2023-01-27T06:13:16.674Z,5.97
2023-01-27T06:15:47.725Z,6.03
2023-01-27T06:18:15.863Z,5.90
2023-01-27T06:20:43.624Z,6.03
2023-01-27T06:23:11.909Z,6.60
2023-01-27T06:25:43.565Z,6.27
2023-01-27T06:28:17.157Z,5.90
2023-01-27T06:30:54.649Z,6.20
2023-01-27T06:33:22.251Z,6.33
2023-01-27T06:35:49.670Z,6.00
2023-01-27T06:38:17.137Z,6.63
2023-01-27T06:40:44.660Z,6.83
2023-01-27T06:43:15.329Z,6.03
2023-01-27T06:45:42.894Z,6.23
2023-01-27T06:48:10.370Z,6.10
2023-01-27T06:50:37.847Z,7.40
2023-01-27T06:53:09.250Z,6.33
2023-01-27T06:55:41.837Z,5.77
2023-01-27T06:58:10.084Z,6.00
2023-01-27T07:00:38.348Z,6.07
2023-01-27T07:03:06.381Z,5.80
2023-01-27T07:05:34.507Z,5.97
2023-01-27T07:08:02.187Z,6.30
2023-01-27T07:10:29.697Z,6.10
2023-01-27T07:13:05.104Z,6.00
2023-01-27T07:15:32.574Z,6.10
2023-01-27T07:18:00.859Z,5.67
2023-01-27T07:20:28.954Z,5.83
2023-01-27T07:23:00.492Z,5.83
2023-01-27T07:25:28.597Z,5.60
2023-01-27T07:27:58.313Z,5.87
2023-01-27T07:30:26.382Z,6.20
2023-01-27T07:32:55.322Z,5.70
2023-01-27T07:35:23.699Z,5.77
2023-01-27T07:37:51.236Z,6.27
2023-01-27T07:40:18.882Z,6.10
2023-01-27T07:42:46.323Z,5.00
2023-01-27T07:45:15.728Z,5.83
2023-01-27T07:47:43.193Z,5.80
2023-01-27T07:50:12.583Z,5.40
2023-01-27T07:52:40.250Z,5.50
2023-01-27T07:55:08.373Z,5.27
2023-01-27T07:57:35.917Z,5.00
2023-01-27T08:00:05.789Z,5.63
2023-01-27T08:02:39.694Z,5.50
2023-01-27T08:05:07.300Z,6.00
2023-01-27T08:07:34.742Z,5.83
2023-01-27T08:10:02.191Z,5.37
2023-01-27T08:12:30.253Z,5.73
2023-01-27T08:14:57.677Z,5.83
2023-01-27T08:17:25.151Z,5.53
2023-01-27T08:19:52.564Z,5.53
2023-01-27T08:22:23.771Z,5.53
2023-01-27T08:24:51.345Z,5.57
2023-01-27T08:27:18.729Z,5.83
2023-01-27T08:29:46.160Z,6.20
2023-01-27T08:32:15.237Z,5.77
2023-01-27T08:34:42.930Z,5.73
2023-01-27T08:37:10.488Z,5.30
2023-01-27T08:39:37.949Z,5.43
2023-01-27T08:42:05.416Z,5.50
2023-01-27T08:44:32.932Z,5.20
2023-01-27T08:47:00.416Z,5.40
2023-01-27T08:49:27.987Z,5.23
2023-01-27T08:51:55.388Z,5.20
2023-01-27T08:54:22.856Z,5.17
2023-01-27T08:56:50.326Z,5.50
2023-01-27T08:59:17.833Z,5.10
2023-01-27T09:01:45.378Z,5.33
2023-01-27T09:04:12.911Z,5.03
2023-01-27T09:06:40.396Z,5.33
2023-01-27T09:09:12.138Z,5.13
2023-01-27T09:11:43.664Z,5.17
2023-01-27T09:14:11.700Z,4.60
2023-01-27T09:16:39.266Z,5.37
2023-01-27T09:19:06.716Z,5.50
2023-01-27T09:21:34.469Z,4.87
2023-01-27T09:24:01.959Z,5.70
2023-01-27T09:26:30.761Z,4.53
2023-01-27T09:28:58.184Z,5.83
2023-01-27T09:31:25.688Z,4.87
2023-01-27T09:33:53.201Z,4.73
2023-01-27T09:36:22.309Z,5.50
2023-01-27T09:38:55.553Z,5.07
2023-01-27T09:41:23.024Z,4.93
2023-01-27T09:43:50.413Z,5.00
2023-01-27T09:46:17.875Z,5.13
2023-01-27T09:48:48.124Z,5.10
2023-01-27T09:51:20.495Z,4.80
2023-01-27T09:53:47.947Z,4.50
2023-01-27T09:56:20.460Z,4.47
2023-01-27T09:58:53.790Z,4.20
2023-01-27T10:01:21.197Z,4.60
2023-01-27T10:03:48.665Z,4.13
2023-01-27T10:06:33.239Z,4.33
2023-01-27T10:09:16.991Z,4.73
2023-01-27T10:12:00.977Z,4.07
2023-01-27T10:14:37.344Z,4.13
2023-01-27T10:17:10.641Z,4.37
2023-01-27T10:19:53.196Z,4.20
2023-01-27T10:22:26.757Z,4.33
2023-01-27T10:24:57.272Z,4.27
2023-01-27T10:27:25.598Z,4.07
2023-01-27T10:30:11.770Z,4.23
2023-01-27T10:32:46.834Z,4.13
2023-01-27T10:35:22.172Z,3.83
2023-01-27T10:37:52.593Z,4.30
2023-01-27T10:40:26.116Z,6.20
2023-01-27T10:43:11.944Z,5.77
2023-01-27T10:45:44.031Z,4.87
2023-01-27T10:48:11.451Z,5.20
2023-01-27T10:50:42.133Z,7.93
2023-01-27T10:53:12.736Z,5.10
2023-01-27T10:55:58.177Z,3.87
2023-01-27T10:58:25.694Z,4.30
2023-01-27T11:03:44.203Z,3.87
2023-01-27T11:06:14.984Z,4.40
2023-01-27T11:08:44.485Z,4.50
2023-01-27T11:11:31.194Z,4.93
2023-01-27T11:14:04.749Z,4.40
2023-01-27T11:16:37.989Z,3.90
2023-01-27T11:19:32.065Z,4.27
2023-01-27T11:22:08.121Z,4.03
2023-01-27T11:24:46.905Z,4.10
2023-01-27T11:27:31.236Z,3.93
2023-01-27T11:30:00.830Z,3.77
2023-01-27T11:32:36.543Z,4.13
2023-01-27T11:35:10.477Z,3.63
2023-01-27T11:37:45.431Z,3.70
2023-01-27T11:40:22.507Z,4.20
2023-01-27T11:42:51.894Z,4.27
2023-01-27T11:45:20.836Z,4.10
2023-01-27T11:47:49.941Z,3.70
2023-01-27T11:50:18.348Z,3.90
2023-01-27T11:52:47.205Z,4.93
2023-01-27T11:55:14.720Z,4.13
2023-01-27T11:57:43.587Z,3.87
2023-01-27T12:00:14.688Z,3.80
2023-01-27T12:02:44.993Z,3.67
2023-01-27T12:05:17.826Z,4.03
2023-01-27T12:07:47.460Z,3.90
2023-01-27T12:10:25.730Z,4.03
2023-01-27T12:12:53.350Z,3.67
2023-01-27T12:15:20.959Z,4.47
2023-01-27T12:17:50.162Z,4.23
2023-01-27T12:20:20.428Z,3.77
2023-01-27T12:22:48.575Z,3.47
2023-01-27T12:25:39.033Z,3.90
2023-01-27T12:28:06.597Z,3.47
2023-01-27T12:30:35.431Z,3.73
2023-01-27T12:33:11.482Z,3.93
2023-01-27T12:35:39.058Z,3.43
2023-01-27T12:38:19.403Z,3.63
2023-01-27T12:40:47.983Z,4.00
2023-01-27T12:43:15.483Z,3.97
2023-01-27T12:45:43.812Z,3.80
2023-01-27T12:48:12.812Z,3.70
2023-01-27T12:50:40.343Z,3.80
2023-01-27T12:53:15.000Z,3.70
2023-01-27T12:55:44.640Z,3.63
2023-01-27T12:58:41.456Z,3.63
2023-01-27T13:01:20.818Z,3.33
2023-01-27T13:03:57.496Z,4.23
2023-01-27T13:06:45.227Z,3.60
2023-01-27T13:09:18.883Z,3.30
2023-01-27T13:11:46.421Z,3.47
2023-01-27T13:14:17.983Z,3.67
2023-01-27T13:16:56.094Z,3.63
2023-01-27T13:19:33.766Z,3.50
2023-01-27T13:22:01.630Z,3.73
2023-01-27T13:24:34.549Z,3.40
2023-01-27T13:27:03.380Z,3.57
2023-01-27T13:29:33.289Z,4.03
2023-01-27T13:32:10.475Z,4.17
2023-01-27T13:34:53.243Z,3.60
2023-01-27T13:37:34.191Z,3.83
2023-01-27T13:40:15.739Z,4.20
2023-01-27T13:42:43.373Z,3.33
2023-01-27T13:45:16.774Z,3.67
2023-01-27T13:47:57.264Z,3.43
2023-01-27T13:50:45.118Z,3.50
2023-01-27T13:53:13.615Z,4.03
2023-01-27T13:55:59.463Z,3.50
2023-01-27T13:58:45.512Z,4.00
2023-01-27T14:01:15.811Z,3.33
2023-01-27T14:03:49.335Z,3.33
2023-01-27T14:06:16.792Z,3.60
2023-01-27T14:08:49.891Z,3.97
2023-01-27T14:11:20.434Z,3.83
2023-01-27T14:14:09.755Z,3.77
2023-01-27T14:16:37.234Z,3.73
2023-01-27T14:19:04.708Z,5.07
2023-01-27T14:21:44.814Z,3.93
2023-01-27T14:24:25.546Z,3.57
2023-01-27T14:26:56.757Z,3.90
2023-01-27T14:29:27.064Z,3.50
2023-01-27T14:31:54.681Z,3.37
2023-01-27T14:34:40.729Z,4.00
2023-01-27T14:37:08.139Z,3.43
2023-01-27T14:39:40.379Z,3.83
2023-01-27T14:42:07.855Z,4.27
2023-01-27T14:45:05.685Z,3.90
2023-01-27T14:47:39.238Z,3.97
2023-01-27T14:50:06.682Z,3.63
2023-01-27T14:52:49.925Z,4.20
2023-01-27T14:55:20.416Z,3.90
2023-01-27T14:58:06.673Z,4.07
2023-01-27T15:01:12.563Z,3.23
2023-01-27T15:03:48.838Z,4.10
2023-01-27T15:06:18.753Z,4.30
2023-01-27T15:08:52.107Z,4.57
2023-01-27T15:11:41.561Z,4.23
2023-01-27T15:14:09.000Z,3.87
2023-01-27T15:16:36.469Z,3.97
2023-01-27T15:19:06.701Z,4.30
2023-01-27T15:21:34.154Z,4.60
2023-01-27T15:24:20.378Z,4.47
2023-01-27T15:26:48.853Z,4.70
2023-01-27T15:29:18.291Z,4.83
2023-01-27T15:32:05.749Z,3.93
2023-01-27T15:34:33.311Z,4.70
2023-01-27T15:37:02.745Z,5.17
2023-01-27T15:39:40.911Z,5.57
2023-01-27T15:42:10.068Z,5.03
2023-01-27T15:44:59.873Z,4.73
2023-01-27T15:47:29.710Z,4.50
2023-01-27T15:50:08.448Z,4.63
2023-01-27T15:52:41.780Z,5.07
2023-01-27T15:55:22.687Z,5.13
2023-01-27T15:57:52.529Z,5.37
2023-01-27T16:00:30.065Z,5.20
2023-01-27T16:03:02.491Z,5.37
2023-01-27T16:05:44.411Z,5.33
2023-01-27T16:08:13.737Z,4.97
2023-01-27T16:10:41.519Z,5.10
2023-01-27T16:13:25.822Z,4.80
2023-01-27T16:16:12.159Z,5.53
2023-01-27T16:18:58.254Z,5.43
2023-01-27T16:21:28.467Z,5.07
2023-01-27T16:23:59.545Z,5.30
2023-01-27T16:26:44.276Z,5.50
2023-01-27T16:29:44.071Z,4.87
2023-01-27T16:32:21.861Z,5.33
2023-01-27T16:35:01.507Z,4.83
2023-01-27T16:37:33.936Z,5.43
2023-01-27T16:40:07.533Z,5.33
2023-01-27T16:42:36.370Z,4.67
2023-01-27T16:45:27.301Z,5.50
2023-01-27T16:48:06.230Z,5.00
2023-01-27T16:50:35.963Z,5.40
2023-01-27T16:53:05.040Z,5.73
2023-01-27T16:55:32.836Z,4.93
2023-01-27T16:58:01.474Z,5.03
2023-01-27T17:00:37.722Z,5.17
2023-01-27T17:03:09.249Z,5.50
2023-01-27T17:05:36.785Z,4.93
2023-01-27T17:08:04.533Z,5.40
2023-01-27T17:10:35.007Z,5.10
2023-01-27T17:13:03.367Z,4.63
2023-01-27T17:15:34.738Z,5.30
2023-01-27T17:18:03.268Z,5.97
2023-01-27T17:20:32.219Z,5.00
2023-01-27T17:23:00.244Z,5.43
2023-01-27T17:25:38.455Z,5.10
2023-01-27T17:28:12.726Z,5.27
2023-01-27T17:30:42.325Z,5.20
2023-01-27T17:33:15.680Z,5.03
2023-01-27T17:35:43.598Z,4.93
2023-01-27T17:38:11.000Z,4.90
2023-01-27T17:40:40.697Z,5.07
2023-01-27T17:43:27.661Z,5.00
2023-01-27T17:46:17.289Z,4.17
2023-01-27T17:48:47.485Z,5.07
2023-01-27T17:51:19.281Z,4.93
2023-01-27T17:53:46.848Z,4.63
2023-01-27T17:56:22.532Z,5.10
2023-01-27T17:58:52.807Z,5.20
2023-01-27T18:01:20.678Z,4.90
2023-01-27T18:03:49.820Z,4.87
2023-01-27T18:06:19.180Z,4.70
2023-01-27T18:08:51.401Z,4.67
2023-01-27T18:11:23.564Z,4.67
2023-01-27T18:13:55.456Z,4.53
2023-01-27T18:16:24.511Z,4.40
2023-01-27T18:18:52.040Z,4.80
2023-01-27T18:21:19.482Z,4.70
2023-01-27T18:23:51.397Z,4.77
2023-01-27T18:26:32.551Z,4.53
2023-01-27T18:29:01.344Z,4.73
2023-01-27T18:31:30.423Z,4.37
2023-01-27T18:33:59.968Z,4.40
2023-01-27T18:36:33.273Z,4.17
2023-01-27T18:39:00.888Z,4.50
2023-01-27T18:41:29.659Z,4.50
2023-01-27T18:43:57.279Z,3.90
2023-01-27T18:46:25.920Z,4.50
2023-01-27T18:48:53.511Z,4.20
2023-01-27T18:51:21.709Z,4.33
2023-01-27T18:53:49.202Z,3.83
2023-01-27T18:56:16.772Z,4.33
2023-01-27T18:58:44.224Z,3.67
2023-01-27T19:01:15.730Z,3.97
2023-01-27T19:03:43.223Z,4.30
2023-01-27T19:06:17.003Z,3.80
2023-01-27T19:08:44.509Z,3.90
2023-01-27T19:11:15.671Z,3.33
2023-01-27T19:13:48.340Z,4.17
2023-01-27T19:16:17.115Z,3.90
2023-01-27T19:18:45.333Z,4.17
2023-01-27T19:21:16.699Z,3.63
2023-01-27T19:23:44.599Z,4.13
2023-01-27T19:26:22.512Z,3.80
2023-01-27T19:28:51.602Z,3.77
2023-01-27T19:31:19.422Z,3.63
2023-01-27T19:33:47.602Z,3.37
2023-01-27T19:36:15.063Z,3.40
2023-01-27T19:38:42.564Z,3.73
2023-01-27T19:41:10.933Z,3.40
2023-01-27T19:43:38.448Z,3.63
2023-01-27T19:46:14.287Z,3.27
2023-01-27T19:48:41.728Z,3.40
2023-01-27T19:51:11.353Z,3.77
2023-01-27T19:53:39.233Z,3.10
2023-01-27T19:56:13.944Z,3.57
2023-01-27T19:58:41.397Z,3.30
2023-01-27T20:01:09.989Z,3.40
2023-01-27T20:03:37.443Z,3.50
2023-01-27T20:06:09.931Z,3.60
2023-01-27T20:08:37.375Z,3.37
2023-01-27T20:11:04.878Z,3.80
2023-01-27T20:13:32.348Z,3.20
2023-01-27T20:15:59.780Z,3.20
2023-01-27T20:18:27.212Z,3.33
2023-01-27T20:20:54.697Z,3.17
2023-01-27T20:23:22.085Z,3.87
2023-01-27T20:25:49.531Z,3.70
2023-01-27T20:28:17.020Z,3.47
2023-01-27T20:30:44.733Z,2.93
2023-01-27T20:33:14.618Z,3.30
2023-01-27T20:35:42.822Z,3.30
2023-01-27T20:38:10.458Z,3.60
2023-01-27T20:40:37.961Z,3.27
2023-01-27T20:43:05.412Z,3.47
2023-01-27T20:45:33.714Z,3.27
2023-01-27T20:48:01.165Z,3.23
2023-01-27T20:50:28.614Z,3.17
2023-01-27T20:52:56.105Z,2.80
2023-01-27T20:55:23.897Z,2.87
2023-01-27T20:57:51.340Z,3.17
2023-01-27T21:00:20.008Z,3.40
2023-01-27T21:02:47.704Z,3.27
2023-01-27T21:05:15.666Z,3.40
2023-01-27T21:07:43.612Z,3.57
2023-01-27T21:10:11.357Z,3.33
2023-01-27T21:12:38.844Z,3.20
2023-01-27T21:15:09.814Z,3.20
2023-01-27T21:17:37.684Z,3.03
2023-01-27T21:20:05.314Z,3.20
2023-01-27T21:22:34.606Z,3.27
2023-01-27T21:25:02.245Z,3.17
2023-01-27T21:27:29.771Z,2.90
